TAF MNCH
METAR MNCH
MNCH 082300Z 18004KT 9999 FEW025 32/19 Q1009=
MNCH 082200Z 02006KT 9999 FEW025 34/18 Q1009=
MNCH 082100Z 18004KT 9999 FEW025 35/17 Q1009=
MNCH 082000Z 14006KT 9999 FEW025 35/17 Q1009=
MNCH 081900Z 36006KT 9999 FEW025 34/17 Q1010=
WC MNCH
WS MNCH
WV MNCH